Terminal Aerodrome Forecast
Issued by NWS

Home | Current Version | Previous Version | Graphics & Text | Print | Product List | Glossary On
Versions: 1 2 3 4 5 6 7 8 9 10 11 12 13 14 15 16 17 18 19 20 21 22 23
000
FTUS43 KUNR 160520
TAFGCC
TAF
KGCC 160520Z 1606/1706 18015KT P6SM BKN150
     FM160900 21015G25KT P6SM SCT200
     FM161600 22025G35KT P6SM BKN150=

USA.gov is the U.S. government's official web portal to all federal, state and local government web resources and services.